sensor_id;sensor_type;location;lat;lon;timestamp;temperature;humidity
42099;DHT22;27758;55.900;8.516;2023-05-10T00:00:00;14.80;99.90
42099;DHT22;27758;55.900;8.516;2023-05-10T00:02:26;14.70;99.90
42099;DHT22;27758;55.900;8.516;2023-05-10T00:04:52;14.70;99.90
42099;DHT22;27758;55.900;8.516;2023-05-10T00:07:18;14.70;99.90
42099;DHT22;27758;55.900;8.516;2023-05-10T00:09:43;14.70;99.90
42099;DHT22;27758;55.900;8.516;2023-05-10T00:12:09;14.70;99.90
42099;DHT22;27758;55.900;8.516;2023-05-10T00:14:35;14.70;99.90
42099;DHT22;27758;55.900;8.516;2023-05-10T00:17:02;14.70;99.90
42099;DHT22;27758;55.900;8.516;2023-05-10T00:19:28;14.70;99.90
42099;DHT22;27758;55.900;8.516;2023-05-10T00:21:53;14.60;99.90
42099;DHT22;27758;55.900;8.516;2023-05-10T00:24:25;14.60;99.90
42099;DHT22;27758;55.900;8.516;2023-05-10T00:26:51;14.60;99.90
42099;DHT22;27758;55.900;8.516;2023-05-10T00:29:16;14.60;99.90
42099;DHT22;27758;55.900;8.516;2023-05-10T00:31:42;14.60;99.90
42099;DHT22;27758;55.900;8.516;2023-05-10T00:34:12;14.60;99.90
42099;DHT22;27758;55.900;8.516;2023-05-10T00:36:37;14.60;99.90
42099;DHT22;27758;55.900;8.516;2023-05-10T00:39:03;14.60;99.90
42099;DHT22;27758;55.900;8.516;2023-05-10T00:41:29;14.60;99.90
42099;DHT22;27758;55.900;8.516;2023-05-10T00:43:58;14.60;99.90
42099;DHT22;27758;55.900;8.516;2023-05-10T00:46:24;14.60;99.90
42099;DHT22;27758;55.900;8.516;2023-05-10T00:48:51;14.50;99.90
42099;DHT22;27758;55.900;8.516;2023-05-10T00:51:17;14.60;99.90
42099;DHT22;27758;55.900;8.516;2023-05-10T00:53:45;14.60;99.90
42099;DHT22;27758;55.900;8.516;2023-05-10T00:56:11;14.50;99.90
42099;DHT22;27758;55.900;8.516;2023-05-10T00:58:38;14.50;99.90
42099;DHT22;27758;55.900;8.516;2023-05-10T01:01:11;14.50;99.90
42099;DHT22;27758;55.900;8.516;2023-05-10T01:03:37;14.40;99.90
42099;DHT22;27758;55.900;8.516;2023-05-10T01:06:03;14.50;99.90
42099;DHT22;27758;55.900;8.516;2023-05-10T01:08:28;14.40;99.90
42099;DHT22;27758;55.900;8.516;2023-05-10T01:10:55;14.50;99.90
42099;DHT22;27758;55.900;8.516;2023-05-10T01:15:58;14.40;99.90
42099;DHT22;27758;55.900;8.516;2023-05-10T01:18:24;14.40;99.90
42099;DHT22;27758;55.900;8.516;2023-05-10T01:21:18;14.40;99.90
42099;DHT22;27758;55.900;8.516;2023-05-10T01:26:39;14.40;99.90
42099;DHT22;27758;55.900;8.516;2023-05-10T01:29:25;14.40;99.90
42099;DHT22;27758;55.900;8.516;2023-05-10T01:32:15;14.30;99.90
42099;DHT22;27758;55.900;8.516;2023-05-10T01:34:52;14.30;99.90
42099;DHT22;27758;55.900;8.516;2023-05-10T01:37:28;14.30;99.90
42099;DHT22;27758;55.900;8.516;2023-05-10T01:40:23;14.30;99.90
42099;DHT22;27758;55.900;8.516;2023-05-10T01:42:54;14.30;99.90
42099;DHT22;27758;55.900;8.516;2023-05-10T01:48:48;14.30;99.90
42099;DHT22;27758;55.900;8.516;2023-05-10T01:51:21;14.20;99.90
42099;DHT22;27758;55.900;8.516;2023-05-10T01:53:48;14.20;99.90
42099;DHT22;27758;55.900;8.516;2023-05-10T01:56:15;14.20;99.90
42099;DHT22;27758;55.900;8.516;2023-05-10T01:58:44;14.20;99.90
42099;DHT22;27758;55.900;8.516;2023-05-10T02:01:13;14.10;99.90
42099;DHT22;27758;55.900;8.516;2023-05-10T02:03:40;14.10;99.90
42099;DHT22;27758;55.900;8.516;2023-05-10T02:06:07;14.00;99.90
42099;DHT22;27758;55.900;8.516;2023-05-10T02:08:35;14.00;99.90
42099;DHT22;27758;55.900;8.516;2023-05-10T02:11:02;13.90;99.90
42099;DHT22;27758;55.900;8.516;2023-05-10T02:13:29;13.90;99.90
42099;DHT22;27758;55.900;8.516;2023-05-10T02:15:57;13.90;99.90
42099;DHT22;27758;55.900;8.516;2023-05-10T02:18:27;13.90;99.90
42099;DHT22;27758;55.900;8.516;2023-05-10T02:20:54;13.90;99.90
42099;DHT22;27758;55.900;8.516;2023-05-10T02:23:21;13.80;99.90
42099;DHT22;27758;55.900;8.516;2023-05-10T02:25:48;13.80;99.90
42099;DHT22;27758;55.900;8.516;2023-05-10T02:28:18;13.70;99.90
42099;DHT22;27758;55.900;8.516;2023-05-10T02:30:45;13.70;99.90
42099;DHT22;27758;55.900;8.516;2023-05-10T02:33:12;13.70;99.90
42099;DHT22;27758;55.900;8.516;2023-05-10T02:35:39;13.60;99.90
42099;DHT22;27758;55.900;8.516;2023-05-10T02:38:06;13.70;99.90
42099;DHT22;27758;55.900;8.516;2023-05-10T02:40:33;13.60;99.90
42099;DHT22;27758;55.900;8.516;2023-05-10T02:43:02;13.50;99.90
42099;DHT22;27758;55.900;8.516;2023-05-10T02:45:31;13.50;99.90
42099;DHT22;27758;55.900;8.516;2023-05-10T02:47:58;13.50;99.90
42099;DHT22;27758;55.900;8.516;2023-05-10T02:50:27;13.50;99.90
42099;DHT22;27758;55.900;8.516;2023-05-10T02:53:06;13.50;99.90
42099;DHT22;27758;55.900;8.516;2023-05-10T02:55:37;13.40;99.90
42099;DHT22;27758;55.900;8.516;2023-05-10T02:58:04;13.40;99.90
42099;DHT22;27758;55.900;8.516;2023-05-10T03:00:30;13.40;99.90
42099;DHT22;27758;55.900;8.516;2023-05-10T03:02:56;13.40;99.90
42099;DHT22;27758;55.900;8.516;2023-05-10T03:05:22;13.40;99.90
42099;DHT22;27758;55.900;8.516;2023-05-10T03:07:52;13.30;99.90
42099;DHT22;27758;55.900;8.516;2023-05-10T03:10:18;13.30;99.90
42099;DHT22;27758;55.900;8.516;2023-05-10T03:17:47;13.30;99.90
42099;DHT22;27758;55.900;8.516;2023-05-10T03:20:26;13.30;99.90
42099;DHT22;27758;55.900;8.516;2023-05-10T03:23:10;13.20;99.90
42099;DHT22;27758;55.900;8.516;2023-05-10T03:25:37;13.30;99.90
42099;DHT22;27758;55.900;8.516;2023-05-10T03:28:04;13.30;99.90
42099;DHT22;27758;55.900;8.516;2023-05-10T03:30:30;13.30;99.90
42099;DHT22;27758;55.900;8.516;2023-05-10T03:32:57;13.20;99.90
42099;DHT22;27758;55.900;8.516;2023-05-10T03:35:23;13.20;99.90
42099;DHT22;27758;55.900;8.516;2023-05-10T03:37:49;13.20;99.90
42099;DHT22;27758;55.900;8.516;2023-05-10T03:40:15;13.20;99.90
42099;DHT22;27758;55.900;8.516;2023-05-10T03:42:41;13.20;99.90
42099;DHT22;27758;55.900;8.516;2023-05-10T03:45:07;13.10;99.90
42099;DHT22;27758;55.900;8.516;2023-05-10T03:47:36;13.20;99.90
42099;DHT22;27758;55.900;8.516;2023-05-10T03:50:02;13.20;99.90
42099;DHT22;27758;55.900;8.516;2023-05-10T03:52:30;13.20;99.90
42099;DHT22;27758;55.900;8.516;2023-05-10T03:54:57;13.20;99.90
42099;DHT22;27758;55.900;8.516;2023-05-10T03:57:26;13.20;99.90
42099;DHT22;27758;55.900;8.516;2023-05-10T03:59:52;13.10;99.90
42099;DHT22;27758;55.900;8.516;2023-05-10T04:02:18;13.00;99.90
42099;DHT22;27758;55.900;8.516;2023-05-10T04:04:43;13.10;99.90
42099;DHT22;27758;55.900;8.516;2023-05-10T04:07:09;13.10;99.90
42099;DHT22;27758;55.900;8.516;2023-05-10T04:09:38;13.00;99.90
42099;DHT22;27758;55.900;8.516;2023-05-10T04:12:04;13.00;99.90
42099;DHT22;27758;55.900;8.516;2023-05-10T04:14:30;13.10;99.90
42099;DHT22;27758;55.900;8.516;2023-05-10T04:16:56;13.00;99.90
42099;DHT22;27758;55.900;8.516;2023-05-10T04:19:22;13.00;99.90
42099;DHT22;27758;55.900;8.516;2023-05-10T04:21:48;13.00;99.90
42099;DHT22;27758;55.900;8.516;2023-05-10T04:24:13;13.00;99.90
42099;DHT22;27758;55.900;8.516;2023-05-10T04:26:39;13.00;99.90
42099;DHT22;27758;55.900;8.516;2023-05-10T04:29:05;13.00;99.90
42099;DHT22;27758;55.900;8.516;2023-05-10T04:31:31;13.00;99.90
42099;DHT22;27758;55.900;8.516;2023-05-10T04:33:56;13.00;99.90
42099;DHT22;27758;55.900;8.516;2023-05-10T04:36:22;13.00;99.90
42099;DHT22;27758;55.900;8.516;2023-05-10T04:38:48;13.00;99.90
42099;DHT22;27758;55.900;8.516;2023-05-10T04:41:13;12.90;99.90
42099;DHT22;27758;55.900;8.516;2023-05-10T04:43:39;13.00;99.90
42099;DHT22;27758;55.900;8.516;2023-05-10T04:46:07;12.90;99.90
42099;DHT22;27758;55.900;8.516;2023-05-10T04:48:32;13.00;99.90
42099;DHT22;27758;55.900;8.516;2023-05-10T04:50:58;13.00;99.90
42099;DHT22;27758;55.900;8.516;2023-05-10T04:53:27;12.90;99.90
42099;DHT22;27758;55.900;8.516;2023-05-10T04:55:53;13.00;99.90
42099;DHT22;27758;55.900;8.516;2023-05-10T04:58:21;13.00;99.90
42099;DHT22;27758;55.900;8.516;2023-05-10T05:00:47;13.10;99.90
42099;DHT22;27758;55.900;8.516;2023-05-10T05:03:15;13.10;99.90
42099;DHT22;27758;55.900;8.516;2023-05-10T05:05:41;13.00;99.90
42099;DHT22;27758;55.900;8.516;2023-05-10T05:08:08;13.00;99.90
42099;DHT22;27758;55.900;8.516;2023-05-10T05:10:34;13.10;99.90
42099;DHT22;27758;55.900;8.516;2023-05-10T05:13:00;13.10;99.90
42099;DHT22;27758;55.900;8.516;2023-05-10T05:15:26;13.10;99.90
42099;DHT22;27758;55.900;8.516;2023-05-10T05:17:54;13.20;99.90
42099;DHT22;27758;55.900;8.516;2023-05-10T05:20:20;13.20;99.90
42099;DHT22;27758;55.900;8.516;2023-05-10T05:22:46;13.20;99.90
42099;DHT22;27758;55.900;8.516;2023-05-10T05:25:12;13.20;99.90
42099;DHT22;27758;55.900;8.516;2023-05-10T05:27:40;13.30;99.90
42099;DHT22;27758;55.900;8.516;2023-05-10T05:30:06;13.30;99.90
42099;DHT22;27758;55.900;8.516;2023-05-10T05:32:33;13.30;99.90
42099;DHT22;27758;55.900;8.516;2023-05-10T05:34:58;13.40;99.90
42099;DHT22;27758;55.900;8.516;2023-05-10T05:37:27;13.40;99.90
42099;DHT22;27758;55.900;8.516;2023-05-10T05:39:53;13.60;99.90
42099;DHT22;27758;55.900;8.516;2023-05-10T05:42:20;13.60;99.90
42099;DHT22;27758;55.900;8.516;2023-05-10T05:44:46;13.60;99.90
42099;DHT22;27758;55.900;8.516;2023-05-10T05:47:11;13.80;99.90
42099;DHT22;27758;55.900;8.516;2023-05-10T05:49:37;13.80;99.90
42099;DHT22;27758;55.900;8.516;2023-05-10T05:52:03;13.80;99.90
42099;DHT22;27758;55.900;8.516;2023-05-10T05:54:30;13.70;99.90
42099;DHT22;27758;55.900;8.516;2023-05-10T05:56:57;13.70;99.90
42099;DHT22;27758;55.900;8.516;2023-05-10T05:59:23;13.60;99.90
42099;DHT22;27758;55.900;8.516;2023-05-10T06:01:49;13.50;99.90
42099;DHT22;27758;55.900;8.516;2023-05-10T06:04:15;13.70;99.90
42099;DHT22;27758;55.900;8.516;2023-05-10T06:06:41;13.70;99.90
42099;DHT22;27758;55.900;8.516;2023-05-10T06:09:08;13.80;99.90
42099;DHT22;27758;55.900;8.516;2023-05-10T06:11:34;13.80;99.90
42099;DHT22;27758;55.900;8.516;2023-05-10T06:14:00;13.80;99.90
42099;DHT22;27758;55.900;8.516;2023-05-10T06:16:27;13.80;99.90
42099;DHT22;27758;55.900;8.516;2023-05-10T06:18:52;13.80;99.90
42099;DHT22;27758;55.900;8.516;2023-05-10T06:21:18;13.80;99.90
42099;DHT22;27758;55.900;8.516;2023-05-10T06:23:44;13.80;99.90
42099;DHT22;27758;55.900;8.516;2023-05-10T06:26:10;13.80;99.90
42099;DHT22;27758;55.900;8.516;2023-05-10T06:28:36;13.70;99.90
42099;DHT22;27758;55.900;8.516;2023-05-10T06:31:04;13.70;99.90
42099;DHT22;27758;55.900;8.516;2023-05-10T06:33:30;13.80;99.90
42099;DHT22;27758;55.900;8.516;2023-05-10T06:35:56;13.80;99.90
42099;DHT22;27758;55.900;8.516;2023-05-10T06:38:22;13.80;99.90
42099;DHT22;27758;55.900;8.516;2023-05-10T06:40:54;13.80;99.90
42099;DHT22;27758;55.900;8.516;2023-05-10T06:43:21;13.80;99.90
42099;DHT22;27758;55.900;8.516;2023-05-10T06:45:48;13.90;99.90
42099;DHT22;27758;55.900;8.516;2023-05-10T06:48:13;13.90;99.90
42099;DHT22;27758;55.900;8.516;2023-05-10T06:50:39;13.90;99.90
42099;DHT22;27758;55.900;8.516;2023-05-10T06:53:05;13.80;99.90
42099;DHT22;27758;55.900;8.516;2023-05-10T06:55:30;13.90;99.90
42099;DHT22;27758;55.900;8.516;2023-05-10T06:57:58;13.90;99.90
42099;DHT22;27758;55.900;8.516;2023-05-10T07:00:32;13.90;99.90
42099;DHT22;27758;55.900;8.516;2023-05-10T07:03:04;14.10;99.90
42099;DHT22;27758;55.900;8.516;2023-05-10T07:05:30;14.20;99.90
42099;DHT22;27758;55.900;8.516;2023-05-10T07:07:55;14.20;99.90
42099;DHT22;27758;55.900;8.516;2023-05-10T07:10:21;14.40;99.90
42099;DHT22;27758;55.900;8.516;2023-05-10T07:12:47;14.40;99.90
42099;DHT22;27758;55.900;8.516;2023-05-10T07:15:12;14.50;99.90
42099;DHT22;27758;55.900;8.516;2023-05-10T07:17:38;14.50;99.90
42099;DHT22;27758;55.900;8.516;2023-05-10T07:20:04;14.50;99.90
42099;DHT22;27758;55.900;8.516;2023-05-10T07:22:30;14.50;99.90
42099;DHT22;27758;55.900;8.516;2023-05-10T07:24:56;14.70;99.90
42099;DHT22;27758;55.900;8.516;2023-05-10T07:27:22;15.00;99.90
42099;DHT22;27758;55.900;8.516;2023-05-10T07:29:47;15.20;99.90
42099;DHT22;27758;55.900;8.516;2023-05-10T07:32:13;15.40;99.90
42099;DHT22;27758;55.900;8.516;2023-05-10T07:34:39;15.50;99.90
42099;DHT22;27758;55.900;8.516;2023-05-10T07:37:05;15.70;99.90
42099;DHT22;27758;55.900;8.516;2023-05-10T07:39:31;15.70;99.90
42099;DHT22;27758;55.900;8.516;2023-05-10T07:41:57;15.70;99.90
42099;DHT22;27758;55.900;8.516;2023-05-10T07:44:23;15.70;99.90
42099;DHT22;27758;55.900;8.516;2023-05-10T07:46:48;15.80;99.90
42099;DHT22;27758;55.900;8.516;2023-05-10T07:49:14;15.80;99.90
42099;DHT22;27758;55.900;8.516;2023-05-10T07:51:43;15.90;99.90
42099;DHT22;27758;55.900;8.516;2023-05-10T07:54:09;16.00;99.90
42099;DHT22;27758;55.900;8.516;2023-05-10T07:56:35;16.30;99.90
42099;DHT22;27758;55.900;8.516;2023-05-10T07:59:03;16.60;99.90
42099;DHT22;27758;55.900;8.516;2023-05-10T08:01:33;16.80;99.90
42099;DHT22;27758;55.900;8.516;2023-05-10T08:03:59;16.70;99.90
42099;DHT22;27758;55.900;8.516;2023-05-10T08:06:25;16.90;99.90
42099;DHT22;27758;55.900;8.516;2023-05-10T08:08:55;16.80;99.90
42099;DHT22;27758;55.900;8.516;2023-05-10T08:11:21;16.80;99.90
42099;DHT22;27758;55.900;8.516;2023-05-10T08:13:49;16.80;99.90
42099;DHT22;27758;55.900;8.516;2023-05-10T08:16:15;16.70;99.90
42099;DHT22;27758;55.900;8.516;2023-05-10T08:18:44;16.90;99.90
42099;DHT22;27758;55.900;8.516;2023-05-10T08:21:12;17.20;99.90
42099;DHT22;27758;55.900;8.516;2023-05-10T08:23:38;17.30;99.90
42099;DHT22;27758;55.900;8.516;2023-05-10T08:26:04;17.40;99.90
42099;DHT22;27758;55.900;8.516;2023-05-10T08:28:30;17.20;99.90
42099;DHT22;27758;55.900;8.516;2023-05-10T08:30:59;17.30;99.90
42099;DHT22;27758;55.900;8.516;2023-05-10T08:33:25;17.40;99.90
42099;DHT22;27758;55.900;8.516;2023-05-10T08:35:51;17.40;99.90
42099;DHT22;27758;55.900;8.516;2023-05-10T08:38:18;17.60;99.90
42099;DHT22;27758;55.900;8.516;2023-05-10T08:40:44;17.40;99.90
42099;DHT22;27758;55.900;8.516;2023-05-10T08:43:12;17.50;99.90
42099;DHT22;27758;55.900;8.516;2023-05-10T08:45:42;17.60;99.90
42099;DHT22;27758;55.900;8.516;2023-05-10T08:48:09;17.60;99.90
42099;DHT22;27758;55.900;8.516;2023-05-10T08:50:40;17.70;99.90
42099;DHT22;27758;55.900;8.516;2023-05-10T08:53:12;17.80;99.90
42099;DHT22;27758;55.900;8.516;2023-05-10T08:55:39;17.90;99.90
42099;DHT22;27758;55.900;8.516;2023-05-10T08:58:06;17.70;99.90
42099;DHT22;27758;55.900;8.516;2023-05-10T09:00:32;17.60;99.90
42099;DHT22;27758;55.900;8.516;2023-05-10T09:03:00;17.40;99.90
42099;DHT22;27758;55.900;8.516;2023-05-10T09:05:26;17.30;99.90
42099;DHT22;27758;55.900;8.516;2023-05-10T09:07:52;17.40;99.90
42099;DHT22;27758;55.900;8.516;2023-05-10T09:10:19;17.40;99.90
42099;DHT22;27758;55.900;8.516;2023-05-10T09:12:45;17.30;99.90
42099;DHT22;27758;55.900;8.516;2023-05-10T09:15:15;17.30;99.90
42099;DHT22;27758;55.900;8.516;2023-05-10T09:17:44;17.30;99.90
42099;DHT22;27758;55.900;8.516;2023-05-10T09:20:11;17.40;99.90
42099;DHT22;27758;55.900;8.516;2023-05-10T09:22:36;17.40;99.90
42099;DHT22;27758;55.900;8.516;2023-05-10T09:27:35;17.20;99.90
42099;DHT22;27758;55.900;8.516;2023-05-10T09:30:02;17.10;99.90
42099;DHT22;27758;55.900;8.516;2023-05-10T09:32:41;17.20;99.90
42099;DHT22;27758;55.900;8.516;2023-05-10T09:35:12;17.60;99.90
42099;DHT22;27758;55.900;8.516;2023-05-10T09:37:44;18.30;99.90
42099;DHT22;27758;55.900;8.516;2023-05-10T09:40:24;18.90;99.90
42099;DHT22;27758;55.900;8.516;2023-05-10T09:43:08;19.00;99.90
42099;DHT22;27758;55.900;8.516;2023-05-10T09:45:36;18.90;99.90
42099;DHT22;27758;55.900;8.516;2023-05-10T09:48:03;18.60;99.90
42099;DHT22;27758;55.900;8.516;2023-05-10T09:50:29;18.60;99.90
42099;DHT22;27758;55.900;8.516;2023-05-10T09:52:57;18.70;99.90
42099;DHT22;27758;55.900;8.516;2023-05-10T09:58:00;18.40;99.90
42099;DHT22;27758;55.900;8.516;2023-05-10T10:00:40;18.40;99.90
42099;DHT22;27758;55.900;8.516;2023-05-10T10:03:16;18.40;99.90
42099;DHT22;27758;55.900;8.516;2023-05-10T10:05:43;18.50;99.90
42099;DHT22;27758;55.900;8.516;2023-05-10T10:08:11;18.60;99.90
42099;DHT22;27758;55.900;8.516;2023-05-10T10:10:38;18.50;99.90
42099;DHT22;27758;55.900;8.516;2023-05-10T10:13:06;18.50;99.90
42099;DHT22;27758;55.900;8.516;2023-05-10T10:15:33;18.40;99.90
42099;DHT22;27758;55.900;8.516;2023-05-10T10:17:59;18.20;99.90
42099;DHT22;27758;55.900;8.516;2023-05-10T10:20:26;18.20;99.90
42099;DHT22;27758;55.900;8.516;2023-05-10T10:22:52;18.40;99.90
42099;DHT22;27758;55.900;8.516;2023-05-10T10:25:19;18.70;99.90
42099;DHT22;27758;55.900;8.516;2023-05-10T10:30:43;19.00;99.90
42099;DHT22;27758;55.900;8.516;2023-05-10T10:36:12;19.20;99.90
42099;DHT22;27758;55.900;8.516;2023-05-10T10:41:36;18.80;99.90
42099;DHT22;27758;55.900;8.516;2023-05-10T10:49:30;18.00;99.90
42099;DHT22;27758;55.900;8.516;2023-05-10T10:55:07;17.80;99.90
42099;DHT22;27758;55.900;8.516;2023-05-10T11:00:20;17.70;99.90
42099;DHT22;27758;55.900;8.516;2023-05-10T11:02:50;17.60;99.90
42099;DHT22;27758;55.900;8.516;2023-05-10T11:05:24;17.70;99.90
42099;DHT22;27758;55.900;8.516;2023-05-10T11:10:21;17.90;99.90
42099;DHT22;27758;55.900;8.516;2023-05-10T11:13:01;17.80;99.90
42099;DHT22;27758;55.900;8.516;2023-05-10T11:15:35;17.80;99.90
42099;DHT22;27758;55.900;8.516;2023-05-10T11:18:25;17.70;99.90
42099;DHT22;27758;55.900;8.516;2023-05-10T11:21:04;17.80;99.90
42099;DHT22;27758;55.900;8.516;2023-05-10T11:23:55;17.70;99.90
42099;DHT22;27758;55.900;8.516;2023-05-10T11:26:25;17.80;99.90
42099;DHT22;27758;55.900;8.516;2023-05-10T11:28:53;17.70;99.90
42099;DHT22;27758;55.900;8.516;2023-05-10T11:31:21;17.60;99.90
42099;DHT22;27758;55.900;8.516;2023-05-10T11:33:52;17.60;99.90
42099;DHT22;27758;55.900;8.516;2023-05-10T11:36:21;17.60;99.90
42099;DHT22;27758;55.900;8.516;2023-05-10T11:38:47;17.60;99.90
42099;DHT22;27758;55.900;8.516;2023-05-10T11:41:14;17.50;99.90
42099;DHT22;27758;55.900;8.516;2023-05-10T11:43:41;17.50;99.90
42099;DHT22;27758;55.900;8.516;2023-05-10T11:46:09;17.50;99.90
42099;DHT22;27758;55.900;8.516;2023-05-10T11:48:36;17.60;99.90
42099;DHT22;27758;55.900;8.516;2023-05-10T11:51:03;17.50;99.90
42099;DHT22;27758;55.900;8.516;2023-05-10T11:53:31;17.50;99.90
42099;DHT22;27758;55.900;8.516;2023-05-10T11:56:08;17.40;99.90
42099;DHT22;27758;55.900;8.516;2023-05-10T11:58:35;17.40;99.90
42099;DHT22;27758;55.900;8.516;2023-05-10T12:01:01;17.40;99.90
42099;DHT22;27758;55.900;8.516;2023-05-10T12:03:28;17.10;99.90
42099;DHT22;27758;55.900;8.516;2023-05-10T12:05:58;16.80;99.90
42099;DHT22;27758;55.900;8.516;2023-05-10T12:08:26;16.70;99.90
42099;DHT22;27758;55.900;8.516;2023-05-10T12:10:53;16.70;99.90
42099;DHT22;27758;55.900;8.516;2023-05-10T12:13:20;16.60;99.90
42099;DHT22;27758;55.900;8.516;2023-05-10T12:15:46;16.50;99.90
42099;DHT22;27758;55.900;8.516;2023-05-10T12:18:13;16.40;99.90
42099;DHT22;27758;55.900;8.516;2023-05-10T12:20:40;16.30;99.90
42099;DHT22;27758;55.900;8.516;2023-05-10T12:23:07;16.30;99.90
42099;DHT22;27758;55.900;8.516;2023-05-10T12:25:34;16.30;99.90
42099;DHT22;27758;55.900;8.516;2023-05-10T12:28:06;16.20;99.90
42099;DHT22;27758;55.900;8.516;2023-05-10T12:30:33;16.20;99.90
42099;DHT22;27758;55.900;8.516;2023-05-10T12:33:10;16.30;99.90
42099;DHT22;27758;55.900;8.516;2023-05-10T12:35:50;16.20;99.90
42099;DHT22;27758;55.900;8.516;2023-05-10T12:38:35;16.20;99.90
42099;DHT22;27758;55.900;8.516;2023-05-10T12:41:06;16.10;99.90
42099;DHT22;27758;55.900;8.516;2023-05-10T12:43:32;16.20;99.90
42099;DHT22;27758;55.900;8.516;2023-05-10T12:45:58;16.20;99.90
42099;DHT22;27758;55.900;8.516;2023-05-10T12:48:29;16.30;99.90
42099;DHT22;27758;55.900;8.516;2023-05-10T12:51:01;16.40;99.90
42099;DHT22;27758;55.900;8.516;2023-05-10T12:53:27;16.50;99.90
42099;DHT22;27758;55.900;8.516;2023-05-10T12:55:53;16.40;99.90
42099;DHT22;27758;55.900;8.516;2023-05-10T12:58:19;16.40;99.90
42099;DHT22;27758;55.900;8.516;2023-05-10T13:00:45;16.40;99.90
42099;DHT22;27758;55.900;8.516;2023-05-10T13:03:11;16.30;99.90
42099;DHT22;27758;55.900;8.516;2023-05-10T13:05:37;16.30;99.90
42099;DHT22;27758;55.900;8.516;2023-05-10T13:08:03;16.30;99.90
42099;DHT22;27758;55.900;8.516;2023-05-10T13:10:32;16.40;99.90
42099;DHT22;27758;55.900;8.516;2023-05-10T13:12:58;16.40;99.90
42099;DHT22;27758;55.900;8.516;2023-05-10T13:15:25;16.40;99.90
42099;DHT22;27758;55.900;8.516;2023-05-10T13:17:51;16.50;99.90
42099;DHT22;27758;55.900;8.516;2023-05-10T13:20:17;16.40;99.90
42099;DHT22;27758;55.900;8.516;2023-05-10T13:22:43;16.30;99.90
42099;DHT22;27758;55.900;8.516;2023-05-10T13:25:10;16.40;99.90
42099;DHT22;27758;55.900;8.516;2023-05-10T13:27:36;16.40;99.90
42099;DHT22;27758;55.900;8.516;2023-05-10T13:30:03;16.40;99.90
42099;DHT22;27758;55.900;8.516;2023-05-10T13:32:29;16.40;99.90
42099;DHT22;27758;55.900;8.516;2023-05-10T13:34:55;16.50;99.90
42099;DHT22;27758;55.900;8.516;2023-05-10T13:37:21;16.60;99.90
42099;DHT22;27758;55.900;8.516;2023-05-10T13:39:47;16.60;99.90
42099;DHT22;27758;55.900;8.516;2023-05-10T13:42:13;16.60;99.90
42099;DHT22;27758;55.900;8.516;2023-05-10T13:44:39;16.80;99.90
42099;DHT22;27758;55.900;8.516;2023-05-10T13:47:05;16.70;99.90
42099;DHT22;27758;55.900;8.516;2023-05-10T13:49:31;16.70;99.90
42099;DHT22;27758;55.900;8.516;2023-05-10T13:51:57;16.70;99.90
42099;DHT22;27758;55.900;8.516;2023-05-10T13:54:23;16.70;99.90
42099;DHT22;27758;55.900;8.516;2023-05-10T13:56:49;16.50;99.90
42099;DHT22;27758;55.900;8.516;2023-05-10T13:59:15;16.50;99.90
42099;DHT22;27758;55.900;8.516;2023-05-10T14:01:44;16.40;99.90
42099;DHT22;27758;55.900;8.516;2023-05-10T14:04:10;16.30;99.90
42099;DHT22;27758;55.900;8.516;2023-05-10T14:06:39;16.20;99.90
42099;DHT22;27758;55.900;8.516;2023-05-10T14:09:05;16.10;99.90
42099;DHT22;27758;55.900;8.516;2023-05-10T14:11:30;15.90;99.90
42099;DHT22;27758;55.900;8.516;2023-05-10T14:13:56;15.70;99.90
42099;DHT22;27758;55.900;8.516;2023-05-10T14:16:22;15.60;99.90
42099;DHT22;27758;55.900;8.516;2023-05-10T14:18:47;15.40;99.90
42099;DHT22;27758;55.900;8.516;2023-05-10T14:21:13;15.30;99.90
42099;DHT22;27758;55.900;8.516;2023-05-10T14:23:41;15.20;99.90
42099;DHT22;27758;55.900;8.516;2023-05-10T14:26:07;15.20;99.90
42099;DHT22;27758;55.900;8.516;2023-05-10T14:28:34;15.10;99.90
42099;DHT22;27758;55.900;8.516;2023-05-10T14:31:00;15.10;99.90
42099;DHT22;27758;55.900;8.516;2023-05-10T14:33:25;15.10;99.90
42099;DHT22;27758;55.900;8.516;2023-05-10T14:35:51;15.00;99.90
42099;DHT22;27758;55.900;8.516;2023-05-10T14:38:17;15.00;99.90
42099;DHT22;27758;55.900;8.516;2023-05-10T14:40:43;14.90;99.90
42099;DHT22;27758;55.900;8.516;2023-05-10T14:43:09;14.90;99.90
42099;DHT22;27758;55.900;8.516;2023-05-10T14:45:34;15.00;99.90
42099;DHT22;27758;55.900;8.516;2023-05-10T14:48:00;15.00;99.90
42099;DHT22;27758;55.900;8.516;2023-05-10T14:50:30;14.80;99.90
42099;DHT22;27758;55.900;8.516;2023-05-10T14:52:56;14.90;99.90
42099;DHT22;27758;55.900;8.516;2023-05-10T14:55:22;14.70;99.90
42099;DHT22;27758;55.900;8.516;2023-05-10T14:57:48;14.70;99.90
42099;DHT22;27758;55.900;8.516;2023-05-10T15:00:16;14.80;99.90
42099;DHT22;27758;55.900;8.516;2023-05-10T15:02:42;14.70;99.90
42099;DHT22;27758;55.900;8.516;2023-05-10T15:05:07;14.80;99.90
42099;DHT22;27758;55.900;8.516;2023-05-10T15:07:33;14.80;99.90
42099;DHT22;27758;55.900;8.516;2023-05-10T15:10:02;14.70;99.90
42099;DHT22;27758;55.900;8.516;2023-05-10T15:12:31;14.80;99.90
42099;DHT22;27758;55.900;8.516;2023-05-10T15:14:57;14.70;99.90
42099;DHT22;27758;55.900;8.516;2023-05-10T15:17:22;14.60;99.90
42099;DHT22;27758;55.900;8.516;2023-05-10T15:19:51;14.50;99.90
42099;DHT22;27758;55.900;8.516;2023-05-10T15:22:17;14.50;99.90
42099;DHT22;27758;55.900;8.516;2023-05-10T15:24:43;14.40;99.90
42099;DHT22;27758;55.900;8.516;2023-05-10T15:27:09;14.40;99.90
42099;DHT22;27758;55.900;8.516;2023-05-10T15:29:34;14.30;99.90
42099;DHT22;27758;55.900;8.516;2023-05-10T15:32:04;14.20;99.90
42099;DHT22;27758;55.900;8.516;2023-05-10T15:34:30;14.20;99.90
42099;DHT22;27758;55.900;8.516;2023-05-10T15:36:55;14.20;99.90
42099;DHT22;27758;55.900;8.516;2023-05-10T15:39:21;14.20;99.90
42099;DHT22;27758;55.900;8.516;2023-05-10T15:41:47;14.20;99.90
42099;DHT22;27758;55.900;8.516;2023-05-10T15:44:16;14.30;99.90
42099;DHT22;27758;55.900;8.516;2023-05-10T15:46:42;14.20;99.90
42099;DHT22;27758;55.900;8.516;2023-05-10T15:49:07;14.10;99.90
42099;DHT22;27758;55.900;8.516;2023-05-10T15:51:33;14.20;99.90
42099;DHT22;27758;55.900;8.516;2023-05-10T15:54:00;14.20;99.90
42099;DHT22;27758;55.900;8.516;2023-05-10T15:56:27;14.10;99.90
42099;DHT22;27758;55.900;8.516;2023-05-10T15:58:53;14.20;99.90
42099;DHT22;27758;55.900;8.516;2023-05-10T16:01:20;14.10;99.90
42099;DHT22;27758;55.900;8.516;2023-05-10T16:03:46;14.10;99.90
42099;DHT22;27758;55.900;8.516;2023-05-10T16:06:12;14.10;99.90
42099;DHT22;27758;55.900;8.516;2023-05-10T16:08:38;14.00;99.90
42099;DHT22;27758;55.900;8.516;2023-05-10T16:11:03;14.10;99.90
42099;DHT22;27758;55.900;8.516;2023-05-10T16:13:29;14.10;99.90